sensor_id;sensor_type;location;lat;lon;timestamp;P1;durP1;ratioP1;P2;durP2;ratioP2
75195;SDS011;63773;42.282;22.782;2023-03-31T00:00:53;13.48;;;5.90;;
75195;SDS011;63773;42.282;22.782;2023-03-31T00:03:21;13.75;;;5.72;;
75195;SDS011;63773;42.282;22.782;2023-03-31T00:05:48;10.40;;;5.40;;
75195;SDS011;63773;42.282;22.782;2023-03-31T00:08:17;8.20;;;3.95;;
75195;SDS011;63773;42.282;22.782;2023-03-31T00:10:44;10.57;;;4.22;;
75195;SDS011;63773;42.282;22.782;2023-03-31T00:13:10;7.43;;;3.50;;
75195;SDS011;63773;42.282;22.782;2023-03-31T00:15:36;7.03;;;3.53;;
75195;SDS011;63773;42.282;22.782;2023-03-31T00:18:02;7.45;;;3.05;;
75195;SDS011;63773;42.282;22.782;2023-03-31T00:20:28;5.85;;;3.13;;
75195;SDS011;63773;42.282;22.782;2023-03-31T00:22:53;6.43;;;3.08;;
75195;SDS011;63773;42.282;22.782;2023-03-31T00:25:21;8.23;;;3.20;;
75195;SDS011;63773;42.282;22.782;2023-03-31T00:27:47;7.00;;;3.42;;
75195;SDS011;63773;42.282;22.782;2023-03-31T00:30:14;5.40;;;2.95;;
75195;SDS011;63773;42.282;22.782;2023-03-31T00:32:40;7.07;;;2.83;;
75195;SDS011;63773;42.282;22.782;2023-03-31T00:35:06;7.70;;;2.70;;
75195;SDS011;63773;42.282;22.782;2023-03-31T00:37:32;6.47;;;2.33;;
75195;SDS011;63773;42.282;22.782;2023-03-31T00:39:58;6.10;;;2.72;;
75195;SDS011;63773;42.282;22.782;2023-03-31T00:42:24;4.07;;;2.17;;
75195;SDS011;63773;42.282;22.782;2023-03-31T00:50:28;3.95;;;1.92;;
75195;SDS011;63773;42.282;22.782;2023-03-31T00:53:02;5.85;;;2.10;;
75195;SDS011;63773;42.282;22.782;2023-03-31T00:55:39;4.97;;;1.90;;
75195;SDS011;63773;42.282;22.782;2023-03-31T00:58:09;4.00;;;1.63;;
75195;SDS011;63773;42.282;22.782;2023-03-31T01:00:38;5.68;;;1.90;;
75195;SDS011;63773;42.282;22.782;2023-03-31T01:03:05;6.03;;;1.90;;
75195;SDS011;63773;42.282;22.782;2023-03-31T01:08:09;5.18;;;1.90;;
75195;SDS011;63773;42.282;22.782;2023-03-31T01:10:38;4.32;;;2.15;;
75195;SDS011;63773;42.282;22.782;2023-03-31T01:13:08;4.72;;;1.73;;
75195;SDS011;63773;42.282;22.782;2023-03-31T01:15:36;6.95;;;2.50;;
75195;SDS011;63773;42.282;22.782;2023-03-31T01:18:03;5.55;;;2.05;;
75195;SDS011;63773;42.282;22.782;2023-03-31T01:34:55;4.97;;;2.00;;
75195;SDS011;63773;42.282;22.782;2023-03-31T01:37:47;4.72;;;1.75;;
75195;SDS011;63773;42.282;22.782;2023-03-31T01:40:32;4.93;;;2.25;;
75195;SDS011;63773;42.282;22.782;2023-03-31T01:48:34;4.20;;;1.70;;
75195;SDS011;63773;42.282;22.782;2023-03-31T01:56:59;4.68;;;2.40;;
75195;SDS011;63773;42.282;22.782;2023-03-31T01:59:33;5.53;;;2.15;;
75195;SDS011;63773;42.282;22.782;2023-03-31T02:02:35;7.50;;;2.80;;
75195;SDS011;63773;42.282;22.782;2023-03-31T02:05:08;5.57;;;3.30;;
75195;SDS011;63773;42.282;22.782;2023-03-31T02:07:42;5.32;;;2.72;;
75195;SDS011;63773;42.282;22.782;2023-03-31T02:10:14;9.63;;;3.40;;
75195;SDS011;63773;42.282;22.782;2023-03-31T02:12:42;6.28;;;3.42;;
75195;SDS011;63773;42.282;22.782;2023-03-31T02:15:10;9.70;;;3.60;;
75195;SDS011;63773;42.282;22.782;2023-03-31T02:17:42;7.57;;;3.92;;
75195;SDS011;63773;42.282;22.782;2023-03-31T02:20:11;5.90;;;2.92;;
75195;SDS011;63773;42.282;22.782;2023-03-31T02:22:42;7.13;;;2.88;;
75195;SDS011;63773;42.282;22.782;2023-03-31T02:25:13;6.35;;;3.08;;
75195;SDS011;63773;42.282;22.782;2023-03-31T02:27:43;6.72;;;2.88;;
75195;SDS011;63773;42.282;22.782;2023-03-31T02:30:15;4.80;;;2.55;;
75195;SDS011;63773;42.282;22.782;2023-03-31T02:32:42;5.28;;;2.22;;
75195;SDS011;63773;42.282;22.782;2023-03-31T02:35:15;4.60;;;2.58;;
75195;SDS011;63773;42.282;22.782;2023-03-31T02:37:44;5.03;;;2.25;;
75195;SDS011;63773;42.282;22.782;2023-03-31T02:40:11;5.45;;;2.70;;
75195;SDS011;63773;42.282;22.782;2023-03-31T02:42:44;4.03;;;2.55;;
75195;SDS011;63773;42.282;22.782;2023-03-31T02:48:03;4.38;;;2.35;;
75195;SDS011;63773;42.282;22.782;2023-03-31T02:50:31;5.05;;;2.65;;
75195;SDS011;63773;42.282;22.782;2023-03-31T02:53:22;5.13;;;2.53;;
75195;SDS011;63773;42.282;22.782;2023-03-31T03:01:26;6.57;;;2.40;;
75195;SDS011;63773;42.282;22.782;2023-03-31T03:04:14;5.53;;;2.25;;
75195;SDS011;63773;42.282;22.782;2023-03-31T03:12:21;3.83;;;2.05;;
75195;SDS011;63773;42.282;22.782;2023-03-31T03:17:41;5.20;;;2.55;;
75195;SDS011;63773;42.282;22.782;2023-03-31T03:20:09;6.72;;;3.13;;
75195;SDS011;63773;42.282;22.782;2023-03-31T03:22:36;5.38;;;2.40;;
75195;SDS011;63773;42.282;22.782;2023-03-31T03:25:06;3.83;;;1.98;;
75195;SDS011;63773;42.282;22.782;2023-03-31T03:27:34;7.35;;;2.72;;
75195;SDS011;63773;42.282;22.782;2023-03-31T03:30:03;6.50;;;2.58;;
75195;SDS011;63773;42.282;22.782;2023-03-31T03:32:30;8.50;;;2.60;;
75195;SDS011;63773;42.282;22.782;2023-03-31T03:34:57;4.85;;;2.53;;
75195;SDS011;63773;42.282;22.782;2023-03-31T03:37:23;7.32;;;2.70;;
75195;SDS011;63773;42.282;22.782;2023-03-31T03:39:49;7.05;;;3.08;;
75195;SDS011;63773;42.282;22.782;2023-03-31T03:42:14;4.88;;;2.97;;
75195;SDS011;63773;42.282;22.782;2023-03-31T03:44:40;6.68;;;2.92;;
75195;SDS011;63773;42.282;22.782;2023-03-31T03:47:06;5.90;;;2.80;;
75195;SDS011;63773;42.282;22.782;2023-03-31T03:49:31;6.10;;;3.65;;
75195;SDS011;63773;42.282;22.782;2023-03-31T03:51:57;6.32;;;3.08;;
75195;SDS011;63773;42.282;22.782;2023-03-31T03:54:22;9.13;;;4.55;;
75195;SDS011;63773;42.282;22.782;2023-03-31T03:56:47;7.45;;;3.42;;
75195;SDS011;63773;42.282;22.782;2023-03-31T03:59:13;8.13;;;3.35;;
75195;SDS011;63773;42.282;22.782;2023-03-31T04:01:38;6.68;;;2.72;;
75195;SDS011;63773;42.282;22.782;2023-03-31T04:04:04;7.10;;;2.70;;
75195;SDS011;63773;42.282;22.782;2023-03-31T04:06:30;7.70;;;3.10;;
75195;SDS011;63773;42.282;22.782;2023-03-31T04:08:55;7.85;;;2.90;;
75195;SDS011;63773;42.282;22.782;2023-03-31T04:11:21;7.47;;;2.97;;
75195;SDS011;63773;42.282;22.782;2023-03-31T04:13:46;5.00;;;2.38;;
75195;SDS011;63773;42.282;22.782;2023-03-31T04:16:12;6.60;;;2.92;;
75195;SDS011;63773;42.282;22.782;2023-03-31T04:18:38;5.47;;;2.55;;
75195;SDS011;63773;42.282;22.782;2023-03-31T04:21:10;6.93;;;3.05;;
75195;SDS011;63773;42.282;22.782;2023-03-31T04:23:39;6.65;;;2.95;;
75195;SDS011;63773;42.282;22.782;2023-03-31T04:26:12;8.90;;;4.50;;
75195;SDS011;63773;42.282;22.782;2023-03-31T04:28:39;6.93;;;3.13;;
75195;SDS011;63773;42.282;22.782;2023-03-31T04:31:10;6.22;;;3.20;;
75195;SDS011;63773;42.282;22.782;2023-03-31T04:33:39;8.90;;;3.05;;
75195;SDS011;63773;42.282;22.782;2023-03-31T04:36:06;5.50;;;3.10;;
75195;SDS011;63773;42.282;22.782;2023-03-31T04:38:45;5.82;;;3.00;;
75195;SDS011;63773;42.282;22.782;2023-03-31T04:41:14;8.48;;;3.00;;
75195;SDS011;63773;42.282;22.782;2023-03-31T04:43:40;7.18;;;3.67;;
75195;SDS011;63773;42.282;22.782;2023-03-31T04:46:06;7.30;;;3.50;;
75195;SDS011;63773;42.282;22.782;2023-03-31T04:48:31;7.13;;;4.40;;
75195;SDS011;63773;42.282;22.782;2023-03-31T04:50:57;7.53;;;3.60;;
75195;SDS011;63773;42.282;22.782;2023-03-31T04:53:22;8.68;;;4.40;;
75195;SDS011;63773;42.282;22.782;2023-03-31T04:55:48;6.00;;;3.45;;
75195;SDS011;63773;42.282;22.782;2023-03-31T04:58:14;8.40;;;4.82;;
75195;SDS011;63773;42.282;22.782;2023-03-31T05:00:40;15.82;;;8.45;;
75195;SDS011;63773;42.282;22.782;2023-03-31T05:03:06;16.20;;;7.90;;
75195;SDS011;63773;42.282;22.782;2023-03-31T05:05:31;13.05;;;7.20;;
75195;SDS011;63773;42.282;22.782;2023-03-31T05:07:57;22.95;;;10.48;;
75195;SDS011;63773;42.282;22.782;2023-03-31T05:10:22;35.10;;;10.93;;
75195;SDS011;63773;42.282;22.782;2023-03-31T05:12:48;25.92;;;15.57;;
75195;SDS011;63773;42.282;22.782;2023-03-31T05:15:13;18.23;;;9.48;;
75195;SDS011;63773;42.282;22.782;2023-03-31T05:17:39;16.08;;;9.15;;
75195;SDS011;63773;42.282;22.782;2023-03-31T05:20:04;15.23;;;7.75;;
75195;SDS011;63773;42.282;22.782;2023-03-31T05:22:35;13.35;;;7.65;;
75195;SDS011;63773;42.282;22.782;2023-03-31T05:25:02;16.88;;;8.60;;
75195;SDS011;63773;42.282;22.782;2023-03-31T05:27:29;13.70;;;7.22;;
75195;SDS011;63773;42.282;22.782;2023-03-31T05:29:54;13.70;;;8.82;;
75195;SDS011;63773;42.282;22.782;2023-03-31T05:32:20;12.48;;;7.13;;
75195;SDS011;63773;42.282;22.782;2023-03-31T05:34:45;9.00;;;5.70;;
75195;SDS011;63773;42.282;22.782;2023-03-31T05:37:11;11.38;;;6.35;;
75195;SDS011;63773;42.282;22.782;2023-03-31T05:39:36;10.25;;;5.47;;
75195;SDS011;63773;42.282;22.782;2023-03-31T05:42:01;8.60;;;4.88;;
75195;SDS011;63773;42.282;22.782;2023-03-31T05:46:54;9.87;;;4.30;;
75195;SDS011;63773;42.282;22.782;2023-03-31T05:49:20;10.48;;;4.47;;
75195;SDS011;63773;42.282;22.782;2023-03-31T05:51:45;9.30;;;4.53;;
75195;SDS011;63773;42.282;22.782;2023-03-31T05:54:11;8.35;;;3.90;;
75195;SDS011;63773;42.282;22.782;2023-03-31T05:56:37;9.27;;;4.28;;
75195;SDS011;63773;42.282;22.782;2023-03-31T05:59:03;9.23;;;4.07;;
75195;SDS011;63773;42.282;22.782;2023-03-31T06:01:28;6.32;;;3.70;;
75195;SDS011;63773;42.282;22.782;2023-03-31T06:03:54;7.80;;;3.35;;
75195;SDS011;63773;42.282;22.782;2023-03-31T06:06:20;7.45;;;3.20;;
75195;SDS011;63773;42.282;22.782;2023-03-31T06:08:46;7.28;;;3.47;;
75195;SDS011;63773;42.282;22.782;2023-03-31T06:11:13;6.50;;;2.83;;
75195;SDS011;63773;42.282;22.782;2023-03-31T06:13:40;6.82;;;2.92;;
75195;SDS011;63773;42.282;22.782;2023-03-31T06:16:06;13.70;;;3.55;;
75195;SDS011;63773;42.282;22.782;2023-03-31T06:18:33;6.32;;;2.70;;
75195;SDS011;63773;42.282;22.782;2023-03-31T06:21:00;5.28;;;3.08;;
75195;SDS011;63773;42.282;22.782;2023-03-31T06:23:26;5.90;;;2.85;;
75195;SDS011;63773;42.282;22.782;2023-03-31T06:25:52;6.88;;;2.92;;
75195;SDS011;63773;42.282;22.782;2023-03-31T06:28:18;8.13;;;2.80;;
75195;SDS011;63773;42.282;22.782;2023-03-31T06:30:45;4.90;;;3.10;;
75195;SDS011;63773;42.282;22.782;2023-03-31T06:33:10;7.55;;;3.95;;
75195;SDS011;63773;42.282;22.782;2023-03-31T06:35:37;6.63;;;3.42;;
75195;SDS011;63773;42.282;22.782;2023-03-31T06:38:04;9.18;;;4.25;;
75195;SDS011;63773;42.282;22.782;2023-03-31T06:40:30;5.63;;;3.58;;
75195;SDS011;63773;42.282;22.782;2023-03-31T06:42:56;8.45;;;4.03;;
75195;SDS011;63773;42.282;22.782;2023-03-31T06:45:21;8.05;;;4.70;;
75195;SDS011;63773;42.282;22.782;2023-03-31T06:47:47;9.73;;;5.15;;
75195;SDS011;63773;42.282;22.782;2023-03-31T06:50:12;7.75;;;4.38;;
75195;SDS011;63773;42.282;22.782;2023-03-31T06:52:37;6.65;;;3.97;;
75195;SDS011;63773;42.282;22.782;2023-03-31T06:55:05;8.90;;;4.25;;
75195;SDS011;63773;42.282;22.782;2023-03-31T06:57:31;5.82;;;3.10;;
75195;SDS011;63773;42.282;22.782;2023-03-31T06:59:58;7.93;;;3.08;;
75195;SDS011;63773;42.282;22.782;2023-03-31T07:02:23;6.15;;;2.88;;
75195;SDS011;63773;42.282;22.782;2023-03-31T07:04:49;5.82;;;2.72;;
75195;SDS011;63773;42.282;22.782;2023-03-31T07:07:14;5.63;;;2.50;;
75195;SDS011;63773;42.282;22.782;2023-03-31T07:10:00;5.40;;;2.25;;
75195;SDS011;63773;42.282;22.782;2023-03-31T07:12:25;6.63;;;2.90;;
75195;SDS011;63773;42.282;22.782;2023-03-31T07:14:51;4.10;;;2.15;;
75195;SDS011;63773;42.282;22.782;2023-03-31T07:17:16;5.22;;;2.33;;
75195;SDS011;63773;42.282;22.782;2023-03-31T07:19:41;4.53;;;2.50;;
75195;SDS011;63773;42.282;22.782;2023-03-31T07:22:12;4.28;;;2.10;;
75195;SDS011;63773;42.282;22.782;2023-03-31T07:24:38;4.75;;;2.33;;
75195;SDS011;63773;42.282;22.782;2023-03-31T07:27:03;4.60;;;2.13;;
75195;SDS011;63773;42.282;22.782;2023-03-31T07:29:29;4.07;;;2.00;;
75195;SDS011;63773;42.282;22.782;2023-03-31T07:31:54;5.05;;;2.58;;
75195;SDS011;63773;42.282;22.782;2023-03-31T07:34:20;3.88;;;2.33;;
75195;SDS011;63773;42.282;22.782;2023-03-31T07:36:45;4.78;;;2.20;;
75195;SDS011;63773;42.282;22.782;2023-03-31T07:39:10;4.85;;;1.92;;
75195;SDS011;63773;42.282;22.782;2023-03-31T07:41:36;3.70;;;2.17;;
75195;SDS011;63773;42.282;22.782;2023-03-31T07:44:01;4.45;;;2.20;;
75195;SDS011;63773;42.282;22.782;2023-03-31T07:46:27;4.68;;;1.88;;
75195;SDS011;63773;42.282;22.782;2023-03-31T07:48:53;4.50;;;2.17;;
75195;SDS011;63773;42.282;22.782;2023-03-31T07:51:22;3.67;;;1.73;;
75195;SDS011;63773;42.282;22.782;2023-03-31T07:53:49;5.13;;;1.80;;
75195;SDS011;63773;42.282;22.782;2023-03-31T07:56:16;6.28;;;2.85;;
75195;SDS011;63773;42.282;22.782;2023-03-31T07:58:43;4.88;;;2.50;;
75195;SDS011;63773;42.282;22.782;2023-03-31T08:01:09;5.18;;;2.00;;
75195;SDS011;63773;42.282;22.782;2023-03-31T08:03:40;5.90;;;2.72;;
75195;SDS011;63773;42.282;22.782;2023-03-31T08:06:06;4.38;;;2.20;;
75195;SDS011;63773;42.282;22.782;2023-03-31T08:08:31;5.25;;;2.10;;
75195;SDS011;63773;42.282;22.782;2023-03-31T08:10:57;3.90;;;1.95;;
75195;SDS011;63773;42.282;22.782;2023-03-31T08:13:22;4.07;;;1.52;;
75195;SDS011;63773;42.282;22.782;2023-03-31T08:15:48;4.65;;;1.92;;
75195;SDS011;63773;42.282;22.782;2023-03-31T08:18:13;3.20;;;1.58;;
75195;SDS011;63773;42.282;22.782;2023-03-31T08:20:39;3.72;;;2.00;;
75195;SDS011;63773;42.282;22.782;2023-03-31T08:23:05;7.25;;;3.88;;
75195;SDS011;63773;42.282;22.782;2023-03-31T08:25:33;8.90;;;2.55;;
75195;SDS011;63773;42.282;22.782;2023-03-31T08:27:58;4.43;;;2.35;;
75195;SDS011;63773;42.282;22.782;2023-03-31T08:30:24;6.38;;;1.58;;
75195;SDS011;63773;42.282;22.782;2023-03-31T08:32:50;4.00;;;1.83;;
75195;SDS011;63773;42.282;22.782;2023-03-31T08:35:15;4.45;;;1.52;;
75195;SDS011;63773;42.282;22.782;2023-03-31T08:37:41;3.72;;;1.23;;
75195;SDS011;63773;42.282;22.782;2023-03-31T08:40:07;3.35;;;1.52;;
75195;SDS011;63773;42.282;22.782;2023-03-31T08:42:42;4.78;;;2.10;;
75195;SDS011;63773;42.282;22.782;2023-03-31T08:47:43;3.55;;;1.30;;
75195;SDS011;63773;42.282;22.782;2023-03-31T08:50:15;3.55;;;1.92;;
75195;SDS011;63773;42.282;22.782;2023-03-31T08:52:44;5.45;;;1.67;;
75195;SDS011;63773;42.282;22.782;2023-03-31T08:55:42;5.30;;;1.88;;
75195;SDS011;63773;42.282;22.782;2023-03-31T08:58:20;5.55;;;1.70;;
75195;SDS011;63773;42.282;22.782;2023-03-31T09:15:27;4.97;;;1.60;;
75195;SDS011;63773;42.282;22.782;2023-03-31T09:17:56;6.85;;;1.80;;
75195;SDS011;63773;42.282;22.782;2023-03-31T09:20:33;5.65;;;1.90;;
75195;SDS011;63773;42.282;22.782;2023-03-31T09:23:23;4.78;;;2.28;;
75195;SDS011;63773;42.282;22.782;2023-03-31T09:25:56;4.85;;;2.20;;
75195;SDS011;63773;42.282;22.782;2023-03-31T09:28:30;4.75;;;1.58;;
75195;SDS011;63773;42.282;22.782;2023-03-31T09:30:59;5.55;;;2.00;;
75195;SDS011;63773;42.282;22.782;2023-03-31T09:33:32;3.92;;;1.83;;
75195;SDS011;63773;42.282;22.782;2023-03-31T09:36:00;5.95;;;2.70;;
75195;SDS011;63773;42.282;22.782;2023-03-31T09:38:32;5.10;;;1.88;;
75195;SDS011;63773;42.282;22.782;2023-03-31T09:40:59;5.65;;;1.52;;
75195;SDS011;63773;42.282;22.782;2023-03-31T09:43:30;3.58;;;1.83;;
75195;SDS011;63773;42.282;22.782;2023-03-31T09:45:59;6.00;;;2.20;;
75195;SDS011;63773;42.282;22.782;2023-03-31T09:48:26;5.47;;;1.73;;
75195;SDS011;63773;42.282;22.782;2023-03-31T09:50:57;4.88;;;1.65;;
75195;SDS011;63773;42.282;22.782;2023-03-31T09:56:32;4.82;;;1.25;;
75195;SDS011;63773;42.282;22.782;2023-03-31T09:59:13;4.75;;;1.55;;
75195;SDS011;63773;42.282;22.782;2023-03-31T10:01:43;3.65;;;1.33;;
75195;SDS011;63773;42.282;22.782;2023-03-31T10:04:16;4.88;;;1.58;;
75195;SDS011;63773;42.282;22.782;2023-03-31T10:06:53;5.10;;;1.40;;
75195;SDS011;63773;42.282;22.782;2023-03-31T10:09:20;3.42;;;1.30;;
75195;SDS011;63773;42.282;22.782;2023-03-31T10:11:57;3.50;;;1.33;;
75195;SDS011;63773;42.282;22.782;2023-03-31T10:14:23;6.53;;;1.58;;
75195;SDS011;63773;42.282;22.782;2023-03-31T10:16:52;3.97;;;1.30;;
75195;SDS011;63773;42.282;22.782;2023-03-31T10:19:23;6.13;;;1.17;;
75195;SDS011;63773;42.282;22.782;2023-03-31T10:24:26;5.90;;;1.15;;
75195;SDS011;63773;42.282;22.782;2023-03-31T10:27:01;4.95;;;1.55;;
75195;SDS011;63773;42.282;22.782;2023-03-31T10:29:30;6.88;;;1.23;;
75195;SDS011;63773;42.282;22.782;2023-03-31T10:32:02;3.10;;;0.98;;
75195;SDS011;63773;42.282;22.782;2023-03-31T10:34:38;3.35;;;1.13;;
75195;SDS011;63773;42.282;22.782;2023-03-31T10:37:06;16.60;;;5.45;;
75195;SDS011;63773;42.282;22.782;2023-03-31T10:39:34;4.68;;;1.20;;
75195;SDS011;63773;42.282;22.782;2023-03-31T10:42:00;3.20;;;0.90;;
75195;SDS011;63773;42.282;22.782;2023-03-31T10:47:02;4.32;;;0.90;;
75195;SDS011;63773;42.282;22.782;2023-03-31T10:49:35;3.60;;;1.45;;
75195;SDS011;63773;42.282;22.782;2023-03-31T10:52:02;9.27;;;1.48;;
75195;SDS011;63773;42.282;22.782;2023-03-31T10:54:28;4.60;;;1.55;;
75195;SDS011;63773;42.282;22.782;2023-03-31T10:56:57;5.03;;;2.00;;
75195;SDS011;63773;42.282;22.782;2023-03-31T11:10:48;4.43;;;1.17;;
75195;SDS011;63773;42.282;22.782;2023-03-31T11:27:03;3.40;;;1.02;;
75195;SDS011;63773;42.282;22.782;2023-03-31T11:29:36;3.63;;;1.20;;
75195;SDS011;63773;42.282;22.782;2023-03-31T11:45:31;3.67;;;1.70;;
75195;SDS011;63773;42.282;22.782;2023-03-31T11:48:37;5.20;;;1.10;;
75195;SDS011;63773;42.282;22.782;2023-03-31T11:51:23;3.58;;;1.27;;
75195;SDS011;63773;42.282;22.782;2023-03-31T11:53:55;6.50;;;1.23;;
75195;SDS011;63773;42.282;22.782;2023-03-31T11:56:24;3.67;;;1.40;;
75195;SDS011;63773;42.282;22.782;2023-03-31T11:58:59;5.32;;;1.70;;
75195;SDS011;63773;42.282;22.782;2023-03-31T12:06:59;7.32;;;1.98;;
75195;SDS011;63773;42.282;22.782;2023-03-31T12:12:42;5.38;;;1.33;;
75195;SDS011;63773;42.282;22.782;2023-03-31T12:17:42;3.88;;;1.20;;
75195;SDS011;63773;42.282;22.782;2023-03-31T12:20:13;5.07;;;1.58;;
75195;SDS011;63773;42.282;22.782;2023-03-31T12:22:47;4.72;;;1.05;;
75195;SDS011;63773;42.282;22.782;2023-03-31T12:25:14;3.50;;;1.30;;
75195;SDS011;63773;42.282;22.782;2023-03-31T12:27:44;3.67;;;1.20;;
75195;SDS011;63773;42.282;22.782;2023-03-31T12:33:23;5.47;;;1.23;;
75195;SDS011;63773;42.282;22.782;2023-03-31T12:36:32;3.42;;;1.27;;
75195;SDS011;63773;42.282;22.782;2023-03-31T12:47:19;3.28;;;1.20;;
75195;SDS011;63773;42.282;22.782;2023-03-31T12:53:00;3.63;;;1.15;;
75195;SDS011;63773;42.282;22.782;2023-03-31T12:55:37;3.50;;;0.60;;
75195;SDS011;63773;42.282;22.782;2023-03-31T13:06:11;4.97;;;1.20;;
75195;SDS011;63773;42.282;22.782;2023-03-31T13:08:59;4.20;;;1.10;;
75195;SDS011;63773;42.282;22.782;2023-03-31T13:16:47;5.38;;;1.20;;
75195;SDS011;63773;42.282;22.782;2023-03-31T13:19:31;3.78;;;1.38;;
75195;SDS011;63773;42.282;22.782;2023-03-31T13:22:01;3.80;;;1.05;;
75195;SDS011;63773;42.282;22.782;2023-03-31T13:24:29;4.25;;;0.90;;
75195;SDS011;63773;42.282;22.782;2023-03-31T13:26:56;2.35;;;1.00;;
75195;SDS011;63773;42.282;22.782;2023-03-31T13:29:42;4.97;;;1.48;;
75195;SDS011;63773;42.282;22.782;2023-03-31T13:42:57;5.22;;;1.33;;
75195;SDS011;63773;42.282;22.782;2023-03-31T13:51:12;3.97;;;1.40;;
75195;SDS011;63773;42.282;22.782;2023-03-31T14:07:45;4.82;;;1.08;;
75195;SDS011;63773;42.282;22.782;2023-03-31T14:10:28;3.17;;;1.00;;
75195;SDS011;63773;42.282;22.782;2023-03-31T14:18:21;4.43;;;1.40;;
75195;SDS011;63773;42.282;22.782;2023-03-31T14:37:24;5.18;;;1.67;;
75195;SDS011;63773;42.282;22.782;2023-03-31T14:39:52;3.67;;;1.30;;
75195;SDS011;63773;42.282;22.782;2023-03-31T14:42:25;4.20;;;1.20;;
75195;SDS011;63773;42.282;22.782;2023-03-31T14:45:00;2.60;;;1.23;;
75195;SDS011;63773;42.282;22.782;2023-03-31T14:47:27;3.03;;;1.20;;
75195;SDS011;63773;42.282;22.782;2023-03-31T14:50:12;3.72;;;1.10;;
75195;SDS011;63773;42.282;22.782;2023-03-31T14:52:40;3.15;;;1.13;;
75195;SDS011;63773;42.282;22.782;2023-03-31T14:55:14;2.55;;;1.13;;
75195;SDS011;63773;42.282;22.782;2023-03-31T14:57:41;2.05;;;0.98;;
75195;SDS011;63773;42.282;22.782;2023-03-31T15:00:13;2.92;;;1.27;;
75195;SDS011;63773;42.282;22.782;2023-03-31T15:02:43;7.35;;;3.33;;
75195;SDS011;63773;42.282;22.782;2023-03-31T15:05:14;9.50;;;2.10;;
75195;SDS011;63773;42.282;22.782;2023-03-31T15:07:57;4.13;;;1.10;;
75195;SDS011;63773;42.282;22.782;2023-03-31T15:10:27;4.32;;;1.40;;
75195;SDS011;63773;42.282;22.782;2023-03-31T15:13:00;4.55;;;1.20;;
75195;SDS011;63773;42.282;22.782;2023-03-31T15:15:31;3.60;;;1.40;;
75195;SDS011;63773;42.282;22.782;2023-03-31T15:17:57;3.95;;;1.13;;
75195;SDS011;63773;42.282;22.782;2023-03-31T15:20:30;2.92;;;1.00;;
75195;SDS011;63773;42.282;22.782;2023-03-31T15:23:01;3.88;;;0.90;;
75195;SDS011;63773;42.282;22.782;2023-03-31T15:25:31;3.17;;;1.52;;
75195;SDS011;63773;42.282;22.782;2023-03-31T15:28:01;5.10;;;1.70;;
75195;SDS011;63773;42.282;22.782;2023-03-31T15:30:30;3.47;;;1.10;;
75195;SDS011;63773;42.282;22.782;2023-03-31T15:32:56;3.25;;;1.10;;
75195;SDS011;63773;42.282;22.782;2023-03-31T15:35:33;3.42;;;1.25;;
75195;SDS011;63773;42.282;22.782;2023-03-31T15:38:04;3.60;;;1.00;;
75195;SDS011;63773;42.282;22.782;2023-03-31T15:43:11;6.53;;;1.95;;
75195;SDS011;63773;42.282;22.782;2023-03-31T15:48:18;2.92;;;1.02;;
75195;SDS011;63773;42.282;22.782;2023-03-31T15:50:45;3.30;;;1.10;;
75195;SDS011;63773;42.282;22.782;2023-03-31T15:53:31;4.93;;;1.38;;
75195;SDS011;63773;42.282;22.782;2023-03-31T15:56:01;6.70;;;1.60;;
75195;SDS011;63773;42.282;22.782;2023-03-31T16:01:16;5.03;;;1.33;;
75195;SDS011;63773;42.282;22.782;2023-03-31T16:03:42;4.07;;;1.35;;
75195;SDS011;63773;42.282;22.782;2023-03-31T16:11:38;9.23;;;3.00;;
75195;SDS011;63773;42.282;22.782;2023-03-31T16:16:44;7.35;;;1.77;;
75195;SDS011;63773;42.282;22.782;2023-03-31T16:19:10;4.82;;;1.73;;
75195;SDS011;63773;42.282;22.782;2023-03-31T16:21:39;3.50;;;1.42;;
75195;SDS011;63773;42.282;22.782;2023-03-31T16:24:07;4.68;;;1.67;;
75195;SDS011;63773;42.282;22.782;2023-03-31T16:26:33;5.47;;;1.50;;
75195;SDS011;63773;42.282;22.782;2023-03-31T16:29:01;3.03;;;1.50;;
75195;SDS011;63773;42.282;22.782;2023-03-31T16:31:29;5.28;;;1.70;;
75195;SDS011;63773;42.282;22.782;2023-03-31T16:34:04;6.43;;;1.98;;
75195;SDS011;63773;42.282;22.782;2023-03-31T16:36:32;4.18;;;2.10;;
75195;SDS011;63773;42.282;22.782;2023-03-31T16:38:58;3.17;;;1.40;;
75195;SDS011;63773;42.282;22.782;2023-03-31T16:41:26;6.72;;;1.85;;
75195;SDS011;63773;42.282;22.782;2023-03-31T16:43:52;3.00;;;1.83;;
75195;SDS011;63773;42.282;22.782;2023-03-31T16:46:19;3.22;;;1.27;;
75195;SDS011;63773;42.282;22.782;2023-03-31T16:48:45;3.60;;;1.63;;
75195;SDS011;63773;42.282;22.782;2023-03-31T16:51:11;7.70;;;2.50;;
75195;SDS011;63773;42.282;22.782;2023-03-31T16:53:37;6.25;;;2.60;;
75195;SDS011;63773;42.282;22.782;2023-03-31T16:56:03;6.50;;;2.60;;
75195;SDS011;63773;42.282;22.782;2023-03-31T16:58:32;6.70;;;2.30;;
75195;SDS011;63773;42.282;22.782;2023-03-31T17:00:58;5.70;;;2.60;;
75195;SDS011;63773;42.282;22.782;2023-03-31T17:03:24;4.25;;;1.92;;
75195;SDS011;63773;42.282;22.782;2023-03-31T17:05:51;5.88;;;2.15;;
75195;SDS011;63773;42.282;22.782;2023-03-31T17:08:19;9.15;;;4.13;;
75195;SDS011;63773;42.282;22.782;2023-03-31T17:10:52;7.50;;;2.88;;
75195;SDS011;63773;42.282;22.782;2023-03-31T17:13:27;10.30;;;5.72;;
75195;SDS011;63773;42.282;22.782;2023-03-31T17:15:52;5.78;;;1.83;;
75195;SDS011;63773;42.282;22.782;2023-03-31T17:18:19;3.72;;;1.42;;
75195;SDS011;63773;42.282;22.782;2023-03-31T17:20:44;7.03;;;1.90;;
75195;SDS011;63773;42.282;22.782;2023-03-31T17:23:10;5.15;;;1.50;;
75195;SDS011;63773;42.282;22.782;2023-03-31T17:25:36;8.10;;;2.00;;
75195;SDS011;63773;42.282;22.782;2023-03-31T17:28:04;7.82;;;3.10;;
75195;SDS011;63773;42.282;22.782;2023-03-31T17:30:30;9.43;;;3.72;;
75195;SDS011;63773;42.282;22.782;2023-03-31T17:32:59;5.60;;;2.65;;
75195;SDS011;63773;42.282;22.782;2023-03-31T17:35:24;5.40;;;1.90;;
75195;SDS011;63773;42.282;22.782;2023-03-31T17:37:50;7.38;;;1.95;;
75195;SDS011;63773;42.282;22.782;2023-03-31T17:40:18;8.35;;;2.92;;
75195;SDS011;63773;42.282;22.782;2023-03-31T17:42:44;8.20;;;2.75;;
75195;SDS011;63773;42.282;22.782;2023-03-31T17:45:11;6.85;;;2.30;;
75195;SDS011;63773;42.282;22.782;2023-03-31T17:47:38;7.28;;;2.22;;
75195;SDS011;63773;42.282;22.782;2023-03-31T17:50:04;7.95;;;3.05;;
75195;SDS011;63773;42.282;22.782;2023-03-31T17:52:30;8.25;;;2.60;;
75195;SDS011;63773;42.282;22.782;2023-03-31T17:54:57;4.25;;;2.10;;
75195;SDS011;63773;42.282;22.782;2023-03-31T17:57:22;6.43;;;2.05;;
75195;SDS011;63773;42.282;22.782;2023-03-31T17:59:48;8.90;;;2.45;;
75195;SDS011;63773;42.282;22.782;2023-03-31T18:02:13;7.43;;;2.05;;
75195;SDS011;63773;42.282;22.782;2023-03-31T18:04:39;7.60;;;2.85;;
75195;SDS011;63773;42.282;22.782;2023-03-31T18:07:05;6.28;;;2.25;;
75195;SDS011;63773;42.282;22.782;2023-03-31T18:09:31;7.47;;;2.10;;
75195;SDS011;63773;42.282;22.782;2023-03-31T18:11:57;7.95;;;3.03;;
75195;SDS011;63773;42.282;22.782;2023-03-31T18:14:23;6.45;;;2.45;;
75195;SDS011;63773;42.282;22.782;2023-03-31T18:16:49;11.80;;;3.17;;
75195;SDS011;63773;42.282;22.782;2023-03-31T18:19:15;8.75;;;3.28;;
75195;SDS011;63773;42.282;22.782;2023-03-31T18:21:41;17.70;;;3.55;;
75195;SDS011;63773;42.282;22.782;2023-03-31T18:24:06;5.95;;;4.50;;
75195;SDS011;63773;42.282;22.782;2023-03-31T18:26:32;9.65;;;3.05;;
75195;SDS011;63773;42.282;22.782;2023-03-31T18:28:57;7.30;;;3.50;;